Terminal Aerodrome Forecast
Issued by NWS

Home | Current Version | Previous Version | Graphics & Text | Print | Product List | Glossary On
Versions: 1 2 3 4 5 6 7 8 9 10 11 12 13 14 15 16 17 18
836
FTUS43 KABR 272050 AAC
TAFMBG
TAF AMD
KMBG 272050Z 2721/2818 06008KT P6SM SCT035 OVC050
     FM272200 05008KT P6SM VCTS OVC050CB
     FM280100 05007KT P6SM OVC050
     FM280500 07007KT P6SM SCT200=

USA.gov is the U.S. government's official web portal to all federal, state and local government web resources and services.